Time;durP1;ratioP1;P1;durP2;ratioP2;P2;SDS_P1;SDS_P2;PMS_P1;PMS_P2;Temp;Humidity;BMP_temperature;BMP_pressure;BME280_temperature;BME280_humidity;BME280_pressure;Samples;Min_cycle;Max_cycle;Signal;HPM_P1;HPM_P2
2023/07/29 00:01:20;;;;;;;1.10;1.10;;;;;;;21.00;72.75;96702.16;4910653;28;20273;-80
2023/07/29 00:03:45;;;;;;;1.33;1.23;;;;;;;20.99;72.50;96703.28;4912228;28;20377;-81
2023/07/29 00:06:11;;;;;;;1.58;1.48;;;;;;;21.01;72.83;96693.16;4939954;28;20397;-80
2023/07/29 00:08:36;;;;;;;2.00;1.70;;;;;;;21.03;72.53;96688.28;4912544;28;20412;-80
2023/07/29 00:11:02;;;;;;;1.58;1.48;;;;;;;21.13;72.45;96682.59;4927500;28;20185;-80
2023/07/29 00:13:27;;;;;;;1.98;1.40;;;;;;;21.09;73.10;96675.63;4943975;28;20340;-81
2023/07/29 00:15:54;;;;;;;1.50;1.40;;;;;;;21.16;72.89;96685.69;4937537;28;20175;-80
2023/07/29 00:18:19;;;;;;;1.60;1.50;;;;;;;21.12;73.00;96677.63;4911618;28;20114;-80
2023/07/29 00:20:45;;;;;;;2.30;1.50;;;;;;;21.11;72.98;96674.22;4921786;28;20247;-80
2023/07/29 00:23:11;;;;;;;1.77;1.67;;;;;;;21.19;72.92;96685.03;4933114;28;20156;-81
2023/07/29 00:25:36;;;;;;;1.52;1.33;;;;;;;21.19;73.39;96685.03;4907218;28;20627;-81
2023/07/29 00:28:01;;;;;;;1.60;1.50;;;;;;;21.29;73.37;96695.25;4935920;28;20340;-81
2023/07/29 00:30:27;;;;;;;2.65;1.20;;;;;;;21.17;73.17;96679.31;4936623;28;20400;-79
2023/07/29 00:32:52;;;;;;;2.30;1.50;;;;;;;21.27;72.93;96687.63;4920275;28;20218;-81
2023/07/29 00:35:18;;;;;;;1.65;1.52;;;;;;;21.29;73.07;96684.66;4919675;28;20184;-81
2023/07/29 00:37:43;;;;;;;2.28;1.60;;;;;;;21.30;73.08;96675.59;4922420;28;20241;-80
2023/07/29 00:40:20;;;;;;;1.90;1.38;;;;;;;21.46;73.05;96689.81;4922510;28;20431;-80
2023/07/29 00:42:45;;;;;;;1.50;1.40;;;;;;;21.40;73.06;96675.19;4906455;28;20288;-81
2023/07/29 00:45:11;;;;;;;1.38;1.27;;;;;;;21.43;72.83;96663.16;4903791;28;20031;-79
2023/07/29 00:47:37;;;;;;;1.88;1.63;;;;;;;21.48;72.85;96671.69;4926172;28;20356;-81
2023/07/29 00:50:03;;;;;;;1.48;1.38;;;;;;;21.61;73.15;96669.06;4927342;28;20193;-81
2023/07/29 00:52:28;;;;;;;2.63;1.42;;;;;;;21.55;72.99;96673.81;4927983;28;20403;-81
2023/07/29 00:54:54;;;;;;;1.88;1.55;;;;;;;21.45;73.20;96661.72;4942450;28;20226;-81
2023/07/29 00:57:20;;;;;;;1.55;1.45;;;;;;;21.36;72.83;96655.00;4941450;28;20199;-79
2023/07/29 00:59:46;;;;;;;2.00;1.60;;;;;;;21.47;73.38;96664.88;4934643;28;20182;-81
2023/07/29 01:02:11;;;;;;;1.67;1.58;;;;;;;21.48;72.87;96661.09;4942143;28;20559;-81
2023/07/29 01:04:37;;;;;;;1.88;1.70;;;;;;;21.53;73.35;96667.31;4975476;22;20412;-85
2023/07/29 01:07:10;;;;;;;1.55;1.45;;;;;;;21.54;73.02;96648.44;4943463;28;20380;-83
2023/07/29 01:09:48;;;;;;;1.63;1.52;;;;;;;21.59;72.97;96660.69;4958262;28;20330;-84
2023/07/29 01:12:25;;;;;;;1.40;1.30;;;;;;;21.68;72.73;96653.44;4957454;28;20282;-83
2023/07/29 01:15:09;;;;;;;1.33;1.23;;;;;;;21.59;73.40;96650.09;4974122;28;20040;-83
2023/07/29 01:17:42;;;;;;;1.83;1.73;;;;;;;21.62;72.55;96652.84;4971021;28;20207;-84
2023/07/29 01:20:09;;;;;;;1.63;1.52;;;;;;;21.63;72.85;96653.66;4948946;28;20179;-84
2023/07/29 01:22:36;;;;;;;1.63;1.52;;;;;;;21.63;72.56;96656.28;4954166;28;20295;-84
2023/07/29 01:25:03;;;;;;;1.63;1.40;;;;;;;21.60;73.03;96663.00;4943528;28;20546;-84
2023/07/29 01:27:29;;;;;;;1.60;1.50;;;;;;;21.58;73.20;96651.22;4932473;28;20255;-84
2023/07/29 01:29:55;;;;;;;1.35;1.25;;;;;;;21.65;72.84;96654.09;4949859;28;20462;-84
2023/07/29 01:32:59;;;;;;;1.50;1.40;;;;;;;21.73;73.20;96658.53;4954831;28;20186;-84
2023/07/29 01:35:45;;;;;;;1.45;1.35;;;;;;;21.68;72.94;96653.44;4979633;28;20405;-84
2023/07/29 01:38:17;;;;;;;2.95;1.65;;;;;;;21.70;72.97;96654.63;4962578;28;20398;-84
2023/07/29 01:40:43;;;;;;;1.88;1.40;;;;;;;21.65;72.91;96654.09;4978670;28;20183;-84
2023/07/29 01:43:10;;;;;;;1.85;1.30;;;;;;;21.69;73.38;96654.97;4928644;28;20331;-85
2023/07/29 01:45:37;;;;;;;2.35;1.40;;;;;;;21.69;73.46;96654.97;4945948;28;20448;-85
2023/07/29 01:48:05;;;;;;;1.48;1.30;;;;;;;21.79;73.11;96653.75;4962033;28;20254;-83
2023/07/29 01:50:31;;;;;;;1.92;1.73;;;;;;;21.74;72.95;96649.44;4958425;28;20261;-84
2023/07/29 01:52:57;;;;;;;1.25;1.15;;;;;;;21.76;72.73;96655.19;4961170;28;20297;-85
2023/07/29 01:55:23;;;;;;;1.70;1.58;;;;;;;21.63;72.92;96640.41;4945148;28;20359;-84
2023/07/29 01:57:48;;;;;;;1.52;1.42;;;;;;;21.79;73.05;96657.19;4960512;28;20232;-84
2023/07/29 02:00:15;;;;;;;1.85;1.70;;;;;;;21.75;73.26;96648.34;4958334;28;20247;-84
2023/07/29 02:02:40;;;;;;;2.10;1.50;;;;;;;21.77;72.75;96651.44;4944543;28;20277;-84
2023/07/29 02:05:06;;;;;;;2.08;1.45;;;;;;;21.69;73.38;96639.84;4928464;28;20325;-84
2023/07/29 02:07:31;;;;;;;2.10;1.60;;;;;;;21.70;73.35;96644.03;4926882;28;20513;-84
2023/07/29 02:09:56;;;;;;;1.70;1.60;;;;;;;21.70;73.35;96636.09;4930384;28;20219;-84
2023/07/29 02:12:22;;;;;;;1.50;1.40;;;;;;;21.65;73.17;96628.34;4940847;28;20356;-84
2023/07/29 02:14:47;;;;;;;1.73;1.63;;;;;;;21.66;72.53;96623.81;4947822;28;20330;-84
2023/07/29 02:17:13;;;;;;;1.67;1.52;;;;;;;21.63;72.81;96630.56;4927203;28;20302;-83
2023/07/29 02:19:38;;;;;;;1.50;1.40;;;;;;;21.63;72.84;96624.50;4924032;28;20211;-85
2023/07/29 02:22:04;;;;;;;1.55;1.42;;;;;;;21.66;72.78;96626.47;4926221;28;20231;-84
2023/07/29 02:24:29;;;;;;;1.20;1.10;;;;;;;21.63;73.51;96627.91;4925653;28;20505;-85
2023/07/29 02:26:55;;;;;;;1.48;1.38;;;;;;;21.69;72.78;96641.72;4943610;28;20368;-84
2023/07/29 02:29:21;;;;;;;1.60;1.50;;;;;;;21.62;73.36;96628.25;4911535;28;20292;-84
2023/07/29 02:31:47;;;;;;;1.52;1.42;;;;;;;21.69;73.04;96629.25;4924965;28;20427;-85
2023/07/29 02:34:13;;;;;;;2.15;1.55;;;;;;;21.60;72.67;96622.50;4905544;28;20205;-84
2023/07/29 02:36:38;;;;;;;1.73;1.63;;;;;;;21.58;72.85;96611.47;4942035;28;20199;-84
2023/07/29 02:39:04;;;;;;;1.70;1.60;;;;;;;21.67;73.25;96625.38;4924112;28;20319;-84
2023/07/29 02:41:29;;;;;;;1.50;1.40;;;;;;;21.52;73.08;96595.00;4941862;28;20426;-84
2023/07/29 02:43:55;;;;;;;1.63;1.30;;;;;;;21.69;73.36;96612.56;4939923;28;20263;-85
2023/07/29 02:46:20;;;;;;;1.80;1.65;;;;;;;21.69;73.21;96625.81;4952174;28;20195;-84
2023/07/29 02:48:46;;;;;;;1.80;1.40;;;;;;;21.72;73.33;96624.41;4944685;28;20158;-86
2023/07/29 02:51:11;;;;;;;2.33;1.85;;;;;;;21.55;73.04;96615.53;4943425;28;20505;-85
2023/07/29 02:53:37;;;;;;;1.88;1.60;;;;;;;21.72;73.10;96625.16;4937986;28;20180;-85
2023/07/29 02:56:08;;;;;;;2.55;1.83;;;;;;;21.78;72.91;96629.16;4927768;28;20350;-85
2023/07/29 02:58:34;;;;;;;1.63;1.52;;;;;;;21.66;73.35;96615.88;4925037;28;20215;-85
2023/07/29 03:01:02;;;;;;;1.55;1.45;;;;;;;21.72;72.91;96635.00;4926628;28;20161;-84
2023/07/29 03:03:27;;;;;;;2.25;1.52;;;;;;;21.57;72.97;96615.22;4943096;28;20201;-84
2023/07/29 03:06:03;;;;;;;2.17;1.83;;;;;;;21.75;72.87;96621.84;4961115;28;20241;-85
2023/07/29 03:08:29;;;;;;;1.95;1.63;;;;;;;21.61;73.12;96594.88;4959856;28;20201;-85
2023/07/29 03:10:55;;;;;;;2.20;1.90;;;;;;;21.62;72.94;96591.91;4944397;28;20238;-84
2023/07/29 03:13:21;;;;;;;1.88;1.75;;;;;;;21.70;73.13;96600.88;4929718;28;20183;-85
2023/07/29 03:15:46;;;;;;;1.75;1.65;;;;;;;21.74;73.33;96609.69;4946175;28;20240;-85
2023/07/29 03:18:11;;;;;;;2.17;1.45;;;;;;;21.60;72.56;96590.72;4930540;28;20269;-85
2023/07/29 03:20:37;;;;;;;1.80;1.70;;;;;;;21.71;73.03;96602.41;4934444;28;20370;-85
2023/07/29 03:23:02;;;;;;;2.00;1.50;;;;;;;21.68;73.07;96592.50;4926586;28;20514;-85
2023/07/29 03:25:28;;;;;;;1.80;1.70;;;;;;;21.66;72.90;96586.72;4929527;28;20139;-85
2023/07/29 03:27:54;;;;;;;1.75;1.50;;;;;;;21.72;72.93;96595.25;4947953;28;20215;-85
2023/07/29 03:30:21;;;;;;;2.35;1.70;;;;;;;21.71;72.75;96602.41;4913054;28;20385;-85
2023/07/29 03:32:47;;;;;;;2.03;1.60;;;;;;;21.64;72.68;96594.25;4931882;28;20205;-85
2023/07/29 03:35:12;;;;;;;1.70;1.60;;;;;;;21.68;73.25;96597.78;4928010;28;20429;-85
2023/07/29 03:37:38;;;;;;;2.10;1.70;;;;;;;21.68;73.17;96593.25;4944878;28;20385;-85
2023/07/29 03:40:04;;;;;;;1.80;1.65;;;;;;;21.70;73.10;96598.22;4928546;28;20382;-84
2023/07/29 03:42:29;;;;;;;2.13;1.60;;;;;;;21.68;73.07;96592.50;4942471;28;20362;-85
2023/07/29 03:44:55;;;;;;;1.77;1.67;;;;;;;21.60;72.98;96578.22;4934218;28;20532;-84
2023/07/29 03:47:20;;;;;;;2.05;1.92;;;;;;;21.63;73.52;96593.47;4944024;28;20144;-84
2023/07/29 03:49:46;;;;;;;3.20;1.85;;;;;;;21.63;72.85;96576.81;4940329;28;20346;-85
2023/07/29 03:52:11;;;;;;;1.70;1.60;;;;;;;21.66;72.90;96570.84;4928498;28;20715;-85
2023/07/29 03:54:36;;;;;;;2.03;1.83;;;;;;;21.66;73.09;96566.31;4927370;28;20754;-84
2023/07/29 03:57:02;;;;;;;2.08;1.60;;;;;;;21.69;73.03;96573.63;4945812;28;20278;-85
2023/07/29 03:59:27;;;;;;;1.70;1.30;;;;;;;21.68;72.82;96568.66;4929647;28;20088;-85
2023/07/29 04:01:53;;;;;;;1.88;1.65;;;;;;;21.65;73.01;96569.31;4920088;28;20215;-85
2023/07/29 04:04:19;;;;;;;3.25;1.80;;;;;;;21.65;72.91;96564.00;4945900;28;20564;-84
2023/07/29 04:06:47;;;;;;;2.80;1.60;;;;;;;21.52;72.98;96549.97;4928020;28;20228;-85
2023/07/29 04:09:13;;;;;;;2.33;1.45;;;;;;;21.60;72.89;96570.28;4945367;28;20213;-84
2023/07/29 04:11:38;;;;;;;1.90;1.75;;;;;;;21.64;73.30;96581.00;4946225;28;20358;-86
2023/07/29 04:14:03;;;;;;;2.13;1.70;;;;;;;21.61;72.96;96584.28;4931650;28;20267;-86
2023/07/29 04:16:29;;;;;;;1.67;1.58;;;;;;;21.68;72.62;96579.25;4946372;28;20184;-86
2023/07/29 04:18:54;;;;;;;2.70;1.85;;;;;;;21.65;72.85;96571.94;4928061;28;20189;-85
2023/07/29 04:21:19;;;;;;;2.67;1.67;;;;;;;21.67;73.16;96562.56;4944377;28;20789;-86
2023/07/29 04:23:45;;;;;;;1.80;1.30;;;;;;;21.73;73.10;96571.06;4912999;28;20265;-86
2023/07/29 04:26:11;;;;;;;1.60;1.50;;;;;;;21.70;73.11;96572.50;4956930;28;20385;-85
2023/07/29 04:28:36;;;;;;;2.47;1.60;;;;;;;21.75;72.27;96589.28;4945515;28;20223;-86
2023/07/29 04:31:02;;;;;;;2.28;1.80;;;;;;;21.69;72.99;96576.25;4947598;28;20251;-86
2023/07/29 04:33:29;;;;;;;2.30;1.67;;;;;;;21.69;72.60;96564.88;4932741;28;20204;-86
2023/07/29 04:35:54;;;;;;;1.73;1.58;;;;;;;21.61;72.96;96557.81;4955372;28;20287;-86
2023/07/29 04:38:20;;;;;;;1.88;1.70;;;;;;;21.65;73.24;96558.69;4923172;28;20485;-87
2023/07/29 04:40:45;;;;;;;2.10;1.90;;;;;;;21.70;73.04;96563.78;4931488;28;20183;-87
2023/07/29 04:43:11;;;;;;;2.67;1.60;;;;;;;21.78;73.11;96580.66;4946454;28;20178;-85
2023/07/29 04:45:42;;;;;;;3.05;2.10;;;;;;;21.73;73.07;96564.97;4945948;28;20278;-87
2023/07/29 04:48:07;;;;;;;1.88;1.77;;;;;;;21.81;72.97;96587.94;4942835;28;20362;-86
2023/07/29 04:50:33;;;;;;;2.10;1.90;;;;;;;21.86;73.11;96587.72;4913562;28;20251;-85
2023/07/29 04:52:58;;;;;;;2.58;1.67;;;;;;;21.86;73.25;96596.44;4941348;28;20388;-87
2023/07/29 04:55:24;;;;;;;1.95;1.60;;;;;;;21.92;73.05;96588.28;4928182;28;20548;-86
2023/07/29 04:57:49;;;;;;;1.92;1.77;;;;;;;21.79;73.02;96580.34;4931510;28;20548;-86
2023/07/29 05:00:15;;;;;;;2.10;1.95;;;;;;;21.91;73.15;96592.03;4929271;28;20191;-86
2023/07/29 05:02:41;;;;;;;2.30;2.10;;;;;;;21.83;72.76;96570.63;4927289;28;20191;-85
2023/07/29 05:05:07;;;;;;;2.38;2.17;;;;;;;21.89;73.32;96585.19;4944656;28;20298;-85
2023/07/29 05:07:33;;;;;;;2.65;2.22;;;;;;;21.92;73.15;96585.63;4924313;28;20205;-86
2023/07/29 05:09:59;;;;;;;2.50;2.30;;;;;;;21.93;72.80;96589.81;4913078;28;20341;-86
2023/07/29 05:12:24;;;;;;;3.33;3.00;;;;;;;21.97;73.34;96601.31;4909753;28;20365;-85
2023/07/29 05:14:49;;;;;;;3.40;2.90;;;;;;;21.98;73.13;96586.94;4948957;28;20090;-86
2023/07/29 05:17:15;;;;;;;4.72;3.33;;;;;;;21.93;72.91;96580.00;4944307;28;20266;-87
2023/07/29 05:19:40;;;;;;;3.65;3.40;;;;;;;22.02;73.03;96593.13;4947474;28;20192;-86
2023/07/29 05:22:06;;;;;;;3.92;3.63;;;;;;;22.08;73.11;96597.88;4948238;28;20235;-87
2023/07/29 05:24:31;;;;;;;4.40;4.10;;;;;;;22.03;72.32;96584.06;4948042;28;20428;-87
2023/07/29 05:26:56;;;;;;;3.75;3.20;;;;;;;22.01;72.91;96575.69;4930058;28;20390;-87
2023/07/29 05:29:22;;;;;;;4.25;3.95;;;;;;;22.03;72.94;96592.78;4913410;28;20413;-86
2023/07/29 05:31:47;;;;;;;4.35;3.95;;;;;;;22.03;72.68;96592.03;4913518;28;20420;-86
2023/07/29 05:34:13;;;;;;;4.30;3.75;;;;;;;21.99;73.16;96596.47;4931677;28;20029;-87
2023/07/29 05:36:39;;;;;;;4.22;3.83;;;;;;;22.01;73.03;96594.25;4945976;28;20685;-86
2023/07/29 05:39:04;;;;;;;4.22;3.63;;;;;;;21.98;73.40;96597.56;4932215;28;20358;-85
2023/07/29 05:41:30;;;;;;;4.63;4.25;;;;;;;22.08;73.24;96594.47;4931632;28;20593;-87
2023/07/29 05:43:55;;;;;;;4.97;3.80;;;;;;;22.07;72.98;96606.16;4943116;28;20431;-87
2023/07/29 05:46:20;;;;;;;3.60;3.30;;;;;;;22.04;73.02;96588.28;4944121;28;20507;-85
2023/07/29 05:48:46;;;;;;;4.50;4.20;;;;;;;22.12;73.31;96603.28;4947342;28;20479;-85
2023/07/29 05:51:11;;;;;;;4.40;4.00;;;;;;;22.10;73.00;96592.25;4930918;28;20438;-87
2023/07/29 05:53:37;;;;;;;4.95;4.03;;;;;;;22.05;73.70;96603.06;4934237;28;20607;-86
2023/07/29 05:56:02;;;;;;;4.10;3.72;;;;;;;22.07;73.30;96596.34;4952113;28;20274;-86
2023/07/29 05:58:30;;;;;;;3.90;3.60;;;;;;;22.16;73.28;96606.81;4934027;28;20654;-86
2023/07/29 06:00:56;;;;;;;4.45;4.15;;;;;;;22.14;73.22;96617.00;4965731;28;20609;-87
2023/07/29 06:03:22;;;;;;;3.65;3.45;;;;;;;22.05;73.05;96600.41;4916399;28;20247;-86
2023/07/29 06:05:49;;;;;;;3.67;3.38;;;;;;;22.19;73.28;96608.81;4947749;28;20346;-86
2023/07/29 06:08:14;;;;;;;3.50;3.20;;;;;;;22.26;73.26;96618.88;4932354;28;20338;-86
2023/07/29 06:10:39;;;;;;;3.97;3.67;;;;;;;22.14;73.10;96598.44;4918496;28;20250;-87
2023/07/29 06:13:05;;;;;;;3.65;3.35;;;;;;;22.23;72.65;96607.03;4951215;28;20196;-87
2023/07/29 06:15:31;;;;;;;4.25;3.95;;;;;;;22.24;73.07;96613.09;4931500;28;20177;-86
2023/07/29 06:17:56;;;;;;;4.53;4.22;;;;;;;22.15;73.35;96618.53;4944839;28;20029;-86
2023/07/29 06:20:22;;;;;;;4.25;3.63;;;;;;;21.98;73.44;96589.59;4950504;28;20195;-86
2023/07/29 06:22:47;;;;;;;4.18;3.88;;;;;;;22.22;73.55;96623.28;4914451;28;20327;-86
2023/07/29 06:25:13;;;;;;;4.50;3.97;;;;;;;22.17;73.42;96626.91;4934413;28;20270;-86
2023/07/29 06:27:38;;;;;;;3.92;3.63;;;;;;;22.21;73.05;96625.16;4947844;28;20176;-84
2023/07/29 06:30:04;;;;;;;3.78;3.47;;;;;;;22.27;73.24;96625.69;4948968;28;20191;-87
2023/07/29 06:32:30;;;;;;;4.13;3.72;;;;;;;22.34;73.45;96630.47;4930809;28;20287;-86
2023/07/29 06:34:55;;;;;;;3.60;3.30;;;;;;;22.39;72.72;96624.94;4938220;28;20393;-87
2023/07/29 06:37:21;;;;;;;4.05;3.75;;;;;;;22.43;72.41;96620.50;4929526;28;20165;-83
2023/07/29 06:39:47;;;;;;;3.13;2.83;;;;;;;22.40;72.01;96623.84;4962636;28;20065;-85
2023/07/29 06:42:12;;;;;;;3.70;3.25;;;;;;;22.36;72.75;96609.69;4964756;28;20210;-87
2023/07/29 06:44:38;;;;;;;3.00;2.80;;;;;;;22.35;72.79;96610.81;4950263;28;20408;-87
2023/07/29 06:47:03;;;;;;;3.58;3.38;;;;;;;22.54;72.53;96629.53;4952834;28;20428;-87
2023/07/29 06:49:29;;;;;;;3.35;2.83;;;;;;;22.14;72.54;96613.56;4941240;28;20186;-85
2023/07/29 06:51:54;;;;;;;3.28;2.90;;;;;;;22.34;73.38;96628.59;4940510;28;20040;-86
2023/07/29 06:54:24;;;;;;;3.95;2.90;;;;;;;22.67;72.08;96640.13;4972382;28;20530;-87
2023/07/29 06:56:49;;;;;;;4.28;3.20;;;;;;;22.73;72.60;96644.09;4939445;28;20034;-87
2023/07/29 06:59:15;;;;;;;2.90;2.70;;;;;;;22.83;71.89;96645.50;4920725;28;20094;-88
2023/07/29 07:01:40;;;;;;;5.10;3.28;;;;;;;22.76;71.43;96646.09;4917090;28;20275;-86
2023/07/29 07:04:05;;;;;;;3.17;2.97;;;;;;;22.71;71.41;96641.78;4954437;28;20184;-86
2023/07/29 07:06:31;;;;;;;2.85;2.65;;;;;;;22.63;71.55;96643.44;4925178;28;20450;-88
2023/07/29 07:08:56;;;;;;;3.30;3.10;;;;;;;22.58;72.00;96643.69;4955561;28;20102;-86
2023/07/29 07:11:22;;;;;;;3.38;3.17;;;;;;;22.68;71.83;96650.41;4924524;28;20283;-86
2023/07/29 07:13:47;;;;;;;5.82;3.15;;;;;;;22.29;72.51;96631.47;4939116;28;20263;-86
2023/07/29 07:16:12;;;;;;;3.47;3.20;;;;;;;22.53;72.13;96659.06;4923705;28;20500;-87
2023/07/29 07:18:38;;;;;;;4.15;3.10;;;;;;;22.32;72.26;96643.31;4936655;28;20318;-85
2023/07/29 07:21:03;;;;;;;3.53;3.22;;;;;;;22.35;72.79;96647.94;4937661;28;20219;-86
2023/07/29 07:23:29;;;;;;;4.07;3.78;;;;;;;22.38;72.06;96626.03;4937861;28;20257;-87
2023/07/29 07:25:54;;;;;;;3.70;3.38;;;;;;;22.57;72.94;96634.19;4936510;28;20459;-86
2023/07/29 07:28:19;;;;;;;3.50;3.20;;;;;;;22.77;72.29;96661.69;4935074;28;20180;-86
2023/07/29 07:30:45;;;;;;;3.60;3.38;;;;;;;22.88;70.91;96661.19;4936138;28;20106;-86
2023/07/29 07:33:10;;;;;;;3.40;3.20;;;;;;;22.90;71.31;96669.59;4937393;28;20252;-86
2023/07/29 07:35:36;;;;;;;3.47;3.17;;;;;;;22.88;70.84;96663.84;4953678;28;20186;-86
2023/07/29 07:38:03;;;;;;;3.38;3.13;;;;;;;22.85;71.31;96654.66;4938388;28;20543;-87
2023/07/29 07:40:32;;;;;;;4.07;3.67;;;;;;;22.98;71.39;96648.22;4938554;28;20412;-86
2023/07/29 07:42:58;;;;;;;3.97;3.67;;;;;;;23.20;71.53;96656.75;4953861;28;20400;-87
2023/07/29 07:45:23;;;;;;;3.28;2.97;;;;;;;23.29;71.12;96669.91;4953383;28;20177;-87
2023/07/29 07:47:48;;;;;;;4.20;3.80;;;;;;;23.46;70.60;96671.47;4954682;28;20183;-87
2023/07/29 07:50:14;;;;;;;3.80;3.50;;;;;;;23.47;70.80;96673.03;4951516;28;20388;-86
2023/07/29 07:52:40;;;;;;;3.60;2.95;;;;;;;23.60;70.58;96671.84;4954202;28;20521;-88
2023/07/29 07:55:05;;;;;;;3.17;2.97;;;;;;;23.53;69.54;96666.34;4952405;28;20345;-87
2023/07/29 07:57:31;;;;;;;3.05;2.85;;;;;;;23.65;70.35;96660.19;4915109;28;20339;-86
2023/07/29 07:59:56;;;;;;;3.70;3.50;;;;;;;23.70;70.09;96652.72;4933996;28;20368;-86
2023/07/29 08:02:22;;;;;;;3.75;3.03;;;;;;;23.74;70.12;96640.28;4951195;28;20253;-86
2023/07/29 08:04:48;;;;;;;3.17;2.40;;;;;;;23.79;68.28;96631.28;4967857;28;20533;-87
2023/07/29 08:07:14;;;;;;;3.50;3.30;;;;;;;23.91;69.61;96662.38;4934337;28;20482;-87
2023/07/29 08:09:39;;;;;;;3.17;2.97;;;;;;;24.05;68.37;96645.97;4950593;28;20072;-85
2023/07/29 08:12:05;;;;;;;3.22;2.92;;;;;;;24.31;69.43;96648.06;4934547;28;20481;-87
2023/07/29 08:14:30;;;;;;;3.00;2.58;;;;;;;24.73;67.10;96659.97;4936337;28;20362;-87
2023/07/29 08:16:56;;;;;;;3.00;2.70;;;;;;;24.85;67.98;96636.66;4924280;28;20102;-85
2023/07/29 08:19:21;;;;;;;2.50;2.28;;;;;;;25.24;66.25;96671.28;4958323;28;20196;-86
2023/07/29 08:21:46;;;;;;;2.28;2.05;;;;;;;25.16;63.51;96664.28;4965616;28;20360;-86
2023/07/29 08:24:12;;;;;;;2.47;2.13;;;;;;;25.28;63.83;96681.25;4971742;28;20392;-86
2023/07/29 08:26:37;;;;;;;2.50;2.30;;;;;;;25.22;65.12;96670.88;4955464;28;20200;-85
2023/07/29 08:29:03;;;;;;;2.50;2.30;;;;;;;25.09;64.77;96677.47;4971603;28;20272;-85
2023/07/29 08:31:28;;;;;;;2.35;1.92;;;;;;;24.98;63.38;96681.78;4968801;28;20495;-86
2023/07/29 08:33:55;;;;;;;2.70;2.50;;;;;;;24.76;64.82;96673.38;4931611;28;20289;-86
2023/07/29 08:36:20;;;;;;;3.90;3.45;;;;;;;24.63;65.00;96669.31;4962137;28;20259;-86
2023/07/29 08:38:45;;;;;;;2.58;2.30;;;;;;;24.66;65.19;96674.72;4946784;28;20353;-86
2023/07/29 08:41:28;;;;;;;2.60;2.40;;;;;;;24.57;64.65;96668.78;4957402;28;20232;-85
2023/07/29 08:44:12;;;;;;;2.33;2.13;;;;;;;24.57;65.19;96670.69;4946141;28;20044;-85
2023/07/29 08:46:38;;;;;;;5.00;2.13;;;;;;;24.47;65.46;96683.41;4951957;28;20198;-85
2023/07/29 08:49:04;;;;;;;2.20;2.05;;;;;;;24.66;64.10;96682.69;4957497;28;20270;-84
2023/07/29 08:51:31;;;;;;;2.00;1.90;;;;;;;24.53;65.43;96675.91;4951338;28;20270;-85
2023/07/29 08:53:58;;;;;;;1.80;1.70;;;;;;;24.77;63.96;96682.91;4965610;28;20372;-84
2023/07/29 08:56:24;;;;;;;4.43;2.22;;;;;;;24.74;64.71;96683.59;4951486;28;20245;-85
2023/07/29 08:58:49;;;;;;;1.90;1.42;;;;;;;25.02;61.02;96672.00;4970948;28;20272;-85
2023/07/29 09:01:15;;;;;;;2.50;2.00;;;;;;;25.02;62.87;96648.78;4928597;28;20088;-86
2023/07/29 09:03:41;;;;;;;4.10;2.10;;;;;;;25.51;61.05;96662.63;4952565;28;20532;-85
2023/07/29 09:06:07;;;;;;;1.88;1.77;;;;;;;25.77;59.09;96672.56;4967614;28;20318;-85
2023/07/29 09:08:33;;;;;;;1.42;1.33;;;;;;;25.77;57.61;96657.38;4964151;28;20082;-85
2023/07/29 09:10:59;;;;;;;1.95;1.80;;;;;;;25.94;59.95;96655.31;4944349;28;20263;-86
2023/07/29 09:13:25;;;;;;;2.60;2.40;;;;;;;26.01;56.62;96644.03;4954228;28;20282;-85
2023/07/29 09:15:55;;;;;;;2.55;1.80;;;;;;;26.20;57.19;96659.94;4937872;28;20147;-84
2023/07/29 09:18:20;;;;;;;1.60;1.50;;;;;;;26.61;57.58;96662.78;4941438;28;21171;-84
2023/07/29 09:20:47;;;;;;;2.45;1.40;;;;;;;26.78;57.08;96647.38;4963164;28;20166;-85
2023/07/29 09:23:13;;;;;;;1.83;1.73;;;;;;;27.09;54.69;96646.97;4966550;28;20372;-84
2023/07/29 09:25:39;;;;;;;1.80;1.70;;;;;;;27.27;54.39;96651.72;4943826;28;20319;-84
2023/07/29 09:28:12;;;;;;;1.67;1.48;;;;;;;27.38;51.92;96652.63;4933207;28;20190;-83
2023/07/29 09:30:39;;;;;;;2.42;1.40;;;;;;;27.52;52.04;96646.66;4947213;28;20265;-83
2023/07/29 09:33:04;;;;;;;1.67;1.58;;;;;;;27.42;52.82;96656.09;4931304;28;20203;-84
2023/07/29 09:35:33;;;;;;;1.98;1.80;;;;;;;27.76;50.78;96664.06;4945890;28;20227;-84
2023/07/29 09:37:59;;;;;;;2.58;1.60;;;;;;;28.00;53.25;96657.38;4934235;28;20325;-84
2023/07/29 09:40:25;;;;;;;1.55;1.45;;;;;;;28.19;50.50;96667.06;4952633;28;20204;-84
2023/07/29 09:42:51;;;;;;;1.70;1.58;;;;;;;27.55;50.91;96666.53;4949137;28;20289;-85
2023/07/29 09:45:27;;;;;;;1.73;1.63;;;;;;;27.71;52.85;96666.28;4916063;28;20093;-85
2023/07/29 09:47:53;;;;;;;3.03;1.63;;;;;;;27.65;52.30;96653.25;4951539;28;20371;-85
2023/07/29 09:50:23;;;;;;;1.98;1.73;;;;;;;27.26;50.44;96661.66;4935532;28;20214;-84
2023/07/29 09:52:49;;;;;;;1.42;1.33;;;;;;;26.97;50.83;96663.22;4929225;28;20211;-85
2023/07/29 09:55:18;;;;;;;1.98;1.50;;;;;;;26.92;53.07;96663.56;4947064;28;20565;-84
2023/07/29 09:57:44;;;;;;;1.60;1.50;;;;;;;26.83;52.34;96660.41;4914851;28;20280;-84
2023/07/29 10:00:13;;;;;;;1.75;1.60;;;;;;;26.59;53.24;96672.28;4964167;28;20150;-85
2023/07/29 10:02:40;;;;;;;2.30;1.50;;;;;;;27.11;52.78;96670.66;4945628;28;20215;-85
2023/07/29 10:05:07;;;;;;;2.35;1.42;;;;;;;27.10;48.36;96669.88;4952198;28;20355;-84
2023/07/29 10:07:34;;;;;;;1.60;1.50;;;;;;;26.71;50.83;96670.19;4964443;28;20387;-84
2023/07/29 10:10:02;;;;;;;1.55;1.45;;;;;;;26.29;51.96;96673.78;4947471;28;20362;-85
2023/07/29 10:12:28;;;;;;;1.50;1.40;;;;;;;26.10;52.64;96682.66;4916499;28;20188;-85
2023/07/29 10:14:55;;;;;;;1.20;1.20;;;;;;;25.63;50.55;96678.44;4933155;28;20184;-84
2023/07/29 10:17:21;;;;;;;2.83;1.55;;;;;;;25.64;49.84;96679.22;4944638;28;20376;-84
2023/07/29 10:19:46;;;;;;;1.77;1.60;;;;;;;25.61;52.92;96686.78;4959372;28;20207;-85
2023/07/29 10:22:13;;;;;;;2.97;1.95;;;;;;;25.71;50.40;96679.34;4939889;28;20417;-83
2023/07/29 10:24:41;;;;;;;2.67;2.47;;;;;;;26.09;52.02;96680.34;4917573;28;20199;-84
2023/07/29 10:27:06;;;;;;;1.67;1.35;;;;;;;26.45;51.93;96688.88;4962312;28;20315;-84
2023/07/29 10:29:36;;;;;;;1.85;1.40;;;;;;;26.93;50.22;96691.06;4948036;28;20255;-85
2023/07/29 10:32:05;;;;;;;2.40;1.80;;;;;;;27.26;46.15;96684.94;4945364;28;20352;-84
2023/07/29 10:34:31;;;;;;;2.78;1.73;;;;;;;27.55;48.78;96691.38;4954644;28;20244;-85
2023/07/29 10:36:58;;;;;;;1.52;1.40;;;;;;;27.68;47.13;96685.75;4915039;28;20188;-85
2023/07/29 10:39:24;;;;;;;2.65;1.70;;;;;;;27.87;45.29;96676.75;4950217;28;20437;-86
2023/07/29 10:42:01;;;;;;;2.28;1.50;;;;;;;27.89;45.67;96683.25;4946424;28;20192;-85
2023/07/29 10:44:39;;;;;;;1.70;1.60;;;;;;;28.27;43.54;96685.84;4959368;28;20166;-85
2023/07/29 10:47:14;;;;;;;2.58;1.50;;;;;;;28.10;45.31;96674.63;4949792;28;20172;-84
2023/07/29 10:49:41;;;;;;;1.60;1.38;;;;;;;27.88;40.86;96689.75;4962713;28;20452;-86
2023/07/29 10:52:06;;;;;;;2.15;1.30;;;;;;;28.20;42.47;96673.94;4952638;28;20202;-85
2023/07/29 10:54:44;;;;;;;2.88;1.33;;;;;;;28.21;42.59;96686.19;4949152;28;20161;-85
2023/07/29 10:57:17;;;;;;;1.55;1.40;;;;;;;28.36;43.32;96697.00;4966083;28;20194;-85
2023/07/29 10:59:56;;;;;;;1.55;1.45;;;;;;;28.48;43.89;96691.34;4948762;28;20451;-82
2023/07/29 11:02:28;;;;;;;1.92;1.40;;;;;;;28.61;43.89;96680.34;4962803;28;20266;-87
2023/07/29 11:04:54;;;;;;;1.85;1.70;;;;;;;28.84;42.30;96680.84;4948309;28;20463;-84
2023/07/29 11:07:26;;;;;;;1.40;1.30;;;;;;;29.00;42.14;96671.72;4958943;28;20207;-86
2023/07/29 11:09:59;;;;;;;2.30;1.40;;;;;;;28.90;42.47;96673.97;4963511;28;20190;-86
2023/07/29 11:12:47;;;;;;;1.70;1.60;;;;;;;28.83;41.14;96676.63;4948699;28;20212;-84
2023/07/29 11:15:12;;;;;;;1.30;1.20;;;;;;;28.90;39.78;96682.00;4933785;28;20342;-85
2023/07/29 11:17:44;;;;;;;2.20;1.50;;;;;;;28.18;42.20;96662.84;4963861;28;20436;-85
2023/07/29 11:20:10;;;;;;;1.15;1.10;;;;;;;27.91;41.89;96669.50;4934907;28;20242;-83
2023/07/29 11:22:36;;;;;;;1.15;1.05;;;;;;;27.69;41.29;96671.25;4957112;28;20184;-86
2023/07/29 11:25:02;;;;;;;1.33;1.23;;;;;;;27.40;42.70;96666.41;4970751;28;20211;-88
2023/07/29 11:27:27;;;;;;;1.40;1.30;;;;;;;27.50;45.81;96675.66;5168796;22;20196;-85
2023/07/29 11:29:57;;;;;;;1.45;1.35;;;;;;;27.75;40.47;96678.56;4929038;28;20161;-85
2023/07/29 11:32:23;;;;;;;1.33;1.25;;;;;;;27.90;40.33;96671.44;4945414;28;20418;-86